Terminal Aerodrome Forecast
Issued by NWS Cleveland, OH

Home | Current Version | Previous Version | Graphics & Text | Print | Product List | Glossary On
Versions: 1 2 3 4 5 6 7 8 9 10 11 12 13 14 15 16 17 18 19 20 21 22 23
000
FTUS41 KCLE 270900 AAA
TAFMFD
TAF AMD
KMFD 270915Z 2709/2806 27005KT 4SM BR SCT006 SCT018
     FM271000 32003KT 4SM BR BKN006 OVC018
     FM271400 35005KT P6SM BKN010
     FM271600 01006KT P6SM BKN025
     FM271800 01006KT P6SM SCT035
     FM280000 02004KT P6SM SCT250=

USA.gov is the U.S. government's official web portal to all federal, state and local government web resources and services.